Time;durP1;ratioP1;P1;durP2;ratioP2;P2;SDS_P1;SDS_P2;PMS_P1;PMS_P2;Temp;Humidity;BMP_temperature;BMP_pressure;BME280_temperature;BME280_humidity;BME280_pressure;Samples;Min_cycle;Max_cycle;Signal;HPM_P1;HPM_P2
2023/01/09 00:00:17;;;;;;;;;;;;;;;16.57;61.97;99324.97;2084877;28;19982;-74
2023/01/09 00:01:22;;;;;;;;;;;;;;;16.58;61.76;99326.50;2085865;28;20066;-71
2023/01/09 00:02:24;;;;;;;;;;;;;;;16.58;61.96;99323.78;2077032;28;20361;-72
2023/01/09 00:03:26;;;;;;;;;;;;;;;16.57;61.65;99319.53;2081092;28;19936;-71
2023/01/09 00:04:28;;;;;;;;;;;;;;;16.57;62.05;99324.97;2077080;28;19929;-70
2023/01/09 00:05:31;;;;;;;;;;;;;;;16.58;61.77;99315.59;2087880;28;19929;-73
2023/01/09 00:06:32;;;;;;;;;;;;;;;16.56;61.71;99312.50;2089315;28;19951;-72
2023/01/09 00:07:35;;;;;;;;;;;;;;;16.56;61.82;99312.50;2079857;28;19925;-71
2023/01/09 00:08:37;;;;;;;;;;;;;;;16.56;61.94;99313.28;2079596;28;19925;-72
2023/01/09 00:09:39;;;;;;;;;;;;;;;16.56;61.76;99313.28;2086987;28;19929;-72
2023/01/09 00:10:41;;;;;;;;;;;;;;;16.55;62.07;99319.16;2085191;28;20388;-72
2023/01/09 00:11:43;;;;;;;;;;;;;;;16.56;61.76;99312.50;2074846;28;19932;-72
2023/01/09 00:12:45;;;;;;;;;;;;;;;16.56;61.67;99310.56;2076649;28;19933;-70
2023/01/09 00:13:48;;;;;;;;;;;;;;;16.56;62.01;99307.06;2080998;28;19932;-72
2023/01/09 00:14:49;;;;;;;;;;;;;;;16.56;61.74;99310.56;2081252;28;19952;-74
2023/01/09 00:15:52;;;;;;;;;;;;;;;16.56;61.91;99299.66;2068143;28;19936;-72
2023/01/09 00:16:55;;;;;;;;;;;;;;;16.56;61.95;99309.78;2075695;28;20309;-73
2023/01/09 00:17:58;;;;;;;;;;;;;;;16.57;61.89;99308.63;2074835;28;19999;-75
2023/01/09 00:18:59;;;;;;;;;;;;;;;16.56;62.13;99309.78;2078539;28;19929;-75
2023/01/09 00:20:02;;;;;;;;;;;;;;;16.56;62.09;99313.28;2086832;28;19929;-74
2023/01/09 00:21:05;;;;;;;;;;;;;;;16.56;61.98;99317.97;2076210;28;19974;-73
2023/01/09 00:22:08;;;;;;;;;;;;;;;16.55;61.83;99309.03;2065044;28;20309;-73
2023/01/09 00:23:10;;;;;;;;;;;;;;;16.55;62.08;99314.50;2065685;28;19934;-72
2023/01/09 00:24:12;;;;;;;;;;;;;;;16.55;61.89;99306.31;2068578;28;19933;-72
2023/01/09 00:25:14;;;;;;;;;;;;;;;16.55;62.03;99305.53;2067778;28;19926;-72
2023/01/09 00:26:18;;;;;;;;;;;;;;;16.55;61.88;99305.53;2081437;28;19933;-73
2023/01/09 00:27:20;;;;;;;;;;;;;;;16.56;61.95;99301.63;2079925;28;19928;-73
2023/01/09 00:28:22;;;;;;;;;;;;;;;16.56;61.91;99307.06;2080636;28;20340;-74
2023/01/09 00:29:24;;;;;;;;;;;;;;;16.54;61.92;99304.75;2076431;28;19929;-73
2023/01/09 00:30:27;;;;;;;;;;;;;;;16.55;61.96;99311.75;2076272;28;19933;-74
2023/01/09 00:31:29;;;;;;;;;;;;;;;16.54;61.89;99310.22;2074001;28;19929;-73
2023/01/09 00:32:33;;;;;;;;;;;;;;;16.54;62.15;99304.00;2066733;28;19934;-73
2023/01/09 00:33:35;;;;;;;;;;;;;;;16.54;61.89;99304.00;2078270;28;19933;-72
2023/01/09 00:34:38;;;;;;;;;;;;;;;16.55;62.22;99297.38;2072779;28;19925;-73
2023/01/09 00:35:41;;;;;;;;;;;;;;;16.54;62.03;99299.31;2074523;28;20313;-74
2023/01/09 00:36:43;;;;;;;;;;;;;;;16.54;62.19;99298.56;2085215;28;19932;-73
2023/01/09 00:37:45;;;;;;;;;;;;;;;16.54;61.77;99304.00;2077354;28;19940;-73
2023/01/09 00:38:48;;;;;;;;;;;;;;;16.53;62.10;99289.59;2082645;28;20020;-74
2023/01/09 00:39:49;;;;;;;;;;;;;;;16.53;62.13;99286.88;2084695;28;19954;-74
2023/01/09 00:40:53;;;;;;;;;;;;;;;16.54;61.99;99282.22;2080399;28;19929;-74
2023/01/09 00:41:57;;;;;;;;;;;;;;;16.53;62.11;99275.22;2063575;28;19930;-74
2023/01/09 00:43:00;;;;;;;;;;;;;;;16.54;62.06;99271.31;2071157;28;19937;-73
2023/01/09 00:44:05;;;;;;;;;;;;;;;16.53;62.09;99276.00;2076960;28;19940;-73
2023/01/09 00:45:09;;;;;;;;;;;;;;;16.53;61.78;99281.44;2074583;28;19930;-73
2023/01/09 00:46:12;;;;;;;;;;;;;;;16.52;61.99;99277.19;2075556;28;19926;-73
2023/01/09 00:47:20;;;;;;;;;;;;;;;16.52;62.11;99295.47;2078943;28;19929;-74
2023/01/09 00:48:25;;;;;;;;;;;;;;;16.53;61.86;99286.09;2079451;28;20001;-74
2023/01/09 00:49:29;;;;;;;;;;;;;;;16.51;61.83;99289.25;2076892;28;19936;-74
2023/01/09 00:50:32;;;;;;;;;;;;;;;16.53;61.89;99297.00;2079854;28;19977;-74
2023/01/09 00:51:34;;;;;;;;;;;;;;;16.52;62.17;99295.47;2080855;28;19997;-74
2023/01/09 00:52:37;;;;;;;;;;;;;;;16.53;61.87;99297.78;2076266;28;20727;-73
2023/01/09 00:53:41;;;;;;;;;;;;;;;16.53;62.07;99297.00;2075554;28;19929;-75
2023/01/09 00:54:44;;;;;;;;;;;;;;;16.53;62.09;99294.28;2074065;28;20373;-73
2023/01/09 00:55:46;;;;;;;;;;;;;;;16.52;62.12;99300.94;2079160;28;19936;-73
2023/01/09 00:56:49;;;;;;;;;;;;;;;16.53;62.23;99294.28;2076153;28;19932;-74
2023/01/09 00:57:51;;;;;;;;;;;;;;;16.51;62.15;99294.69;2075831;28;19932;-74
2023/01/09 00:58:54;;;;;;;;;;;;;;;16.52;61.96;99295.47;2076090;28;19925;-74
2023/01/09 00:59:56;;;;;;;;;;;;;;;16.52;62.00;99292.75;2076105;28;19952;-74
2023/01/09 01:00:58;;;;;;;;;;;;;;;16.52;62.14;99295.47;2068468;28;19933;-73
2023/01/09 01:02:00;;;;;;;;;;;;;;;16.52;62.15;99295.47;2080205;28;19972;-75
2023/01/09 01:03:03;;;;;;;;;;;;;;;16.51;61.99;99291.22;2066716;28;19930;-74
2023/01/09 01:08:11;;;;;;;;;;;;;;;16.51;62.22;99305.59;2071418;28;20375;-74
2023/01/09 01:09:13;;;;;;;;;;;;;;;16.51;62.29;99310.28;2062331;28;19930;-74
2023/01/09 01:10:18;;;;;;;;;;;;;;;16.51;62.02;99302.88;2063719;28;19926;-73
2023/01/09 01:11:20;;;;;;;;;;;;;;;16.51;62.04;99316.50;2070263;28;19934;-74
2023/01/09 01:12:23;;;;;;;;;;;;;;;16.50;62.24;99314.97;2083992;28;19929;-74
2023/01/09 01:13:24;;;;;;;;;;;;;;;16.52;62.21;99317.28;2085151;28;19963;-73
2023/01/09 01:14:29;;;;;;;;;;;;;;;16.50;62.17;99312.25;2075957;28;19925;-75
2023/01/09 01:15:31;;;;;;;;;;;;;;;16.50;62.24;99308.75;2084170;28;19930;-74
2023/01/09 01:16:33;;;;;;;;;;;;;;;16.50;61.96;99314.19;2082278;28;19944;-73
2023/01/09 01:17:35;;;;;;;;;;;;;;;16.50;62.18;99317.69;2080693;28;19929;-74
2023/01/09 01:18:39;;;;;;;;;;;;;;;16.51;62.24;99313.03;2073913;28;20117;-74
2023/01/09 01:19:42;;;;;;;;;;;;;;;16.50;62.23;99311.47;2070814;28;19952;-74
2023/01/09 01:20:45;;;;;;;;;;;;;;;16.50;62.07;99314.19;2072291;28;19936;-75
2023/01/09 01:21:47;;;;;;;;;;;;;;;16.49;62.09;99318.84;2077683;28;20322;-74
2023/01/09 01:22:49;;;;;;;;;;;;;;;16.49;62.24;99323.56;2079065;28;19928;-74
2023/01/09 01:23:51;;;;;;;;;;;;;;;16.49;62.29;99327.03;2087110;28;19932;-73
2023/01/09 01:24:54;;;;;;;;;;;;;;;16.49;62.07;99329.75;2071477;28;19929;-73
2023/01/09 01:25:55;;;;;;;;;;;;;;;16.50;62.28;99327.81;2064235;28;19930;-73
2023/01/09 01:26:58;;;;;;;;;;;;;;;16.49;62.16;99335.19;2058088;28;19934;-73
2023/01/09 01:28:00;;;;;;;;;;;;;;;16.48;62.30;99333.69;2078300;28;20030;-74
2023/01/09 01:29:02;;;;;;;;;;;;;;;16.48;62.18;99325.50;2082131;28;19926;-74
2023/01/09 01:30:05;;;;;;;;;;;;;;;16.48;62.43;99333.69;2079540;28;19932;-74
2023/01/09 01:31:08;;;;;;;;;;;;;;;16.48;62.39;99327.44;2077687;28;20344;-73
2023/01/09 01:32:10;;;;;;;;;;;;;;;16.49;62.26;99329.75;2077935;28;19929;-73
2023/01/09 01:33:13;;;;;;;;;;;;;;;16.49;62.27;99334.44;2077048;28;19925;-73
2023/01/09 01:34:14;;;;;;;;;;;;;;;16.48;62.14;99333.69;2085642;28;19929;-73
2023/01/09 01:35:18;;;;;;;;;;;;;;;16.48;62.20;99330.16;2080627;28;19925;-74
2023/01/09 01:36:20;;;;;;;;;;;;;;;16.48;62.01;99333.69;2085923;28;19963;-74
2023/01/09 01:37:23;;;;;;;;;;;;;;;16.49;62.20;99329.00;2085635;28;19925;-74
2023/01/09 01:38:25;;;;;;;;;;;;;;;16.48;62.05;99332.91;2077848;28;19925;-74
2023/01/09 01:39:27;;;;;;;;;;;;;;;16.48;62.11;99343.78;2080323;28;20754;-74
2023/01/09 01:40:29;;;;;;;;;;;;;;;16.48;62.30;99336.41;2076088;28;19936;-74
2023/01/09 01:41:32;;;;;;;;;;;;;;;16.48;62.09;99341.84;2080743;28;20338;-74
2023/01/09 01:42:33;;;;;;;;;;;;;;;16.48;62.19;99330.16;2079634;28;19929;-74
2023/01/09 01:43:49;;;;;;;;;;;;;;;16.48;62.34;99341.06;2072173;28;19936;-75
2023/01/09 01:44:55;;;;;;;;;;;;;;;16.47;62.14;99343.03;2071949;28;19930;-74
2023/01/09 01:45:58;;;;;;;;;;;;;;;16.48;62.39;99343.78;2075533;28;19933;-74
2023/01/09 01:47:00;;;;;;;;;;;;;;;16.47;62.13;99337.59;2073951;28;19977;-73
2023/01/09 01:48:06;;;;;;;;;;;;;;;16.48;62.32;99336.41;2083629;28;19925;-74
2023/01/09 01:49:10;;;;;;;;;;;;;;;16.47;62.11;99336.81;2076954;28;20504;-74
2023/01/09 01:50:15;;;;;;;;;;;;;;;16.47;62.26;99331.38;2071976;28;19933;-74
2023/01/09 01:51:21;;;;;;;;;;;;;;;16.47;62.35;99339.53;2077601;28;19936;-74
2023/01/09 01:52:23;;;;;;;;;;;;;;;16.47;62.30;99336.81;2082592;28;19937;-74
2023/01/09 01:53:28;;;;;;;;;;;;;;;16.47;62.33;99336.81;2075463;28;19936;-75
2023/01/09 01:54:31;;;;;;;;;;;;;;;16.47;62.30;99339.53;2076954;28;19933;-74
2023/01/09 01:55:34;;;;;;;;;;;;;;;16.47;62.12;99336.81;2076385;28;19929;-74
2023/01/09 01:56:39;;;;;;;;;;;;;;;16.46;62.36;99346.94;2076358;28;19926;-74
2023/01/09 01:57:44;;;;;;;;;;;;;;;16.46;62.32;99346.94;2073643;28;19929;-75
2023/01/09 01:58:49;;;;;;;;;;;;;;;16.46;62.44;99341.47;2082873;28;19979;-74
2023/01/09 01:59:53;;;;;;;;;;;;;;;16.46;62.30;99341.47;2078785;28;19960;-74
2023/01/09 02:00:55;;;;;;;;;;;;;;;16.46;62.17;99340.75;2064569;28;19933;-74
2023/01/09 02:01:59;;;;;;;;;;;;;;;16.46;62.32;99341.47;2066690;28;20371;-74
2023/01/09 02:03:01;;;;;;;;;;;;;;;16.44;62.16;99350.06;2068691;28;20528;-74
2023/01/09 02:04:04;;;;;;;;;;;;;;;16.45;62.35;99339.97;2061249;28;19930;-74
2023/01/09 02:05:06;;;;;;;;;;;;;;;16.46;62.28;99346.19;2072250;28;19937;-74
2023/01/09 02:06:09;;;;;;;;;;;;;;;16.44;62.38;99350.06;2085276;28;19939;-75
2023/01/09 02:07:12;;;;;;;;;;;;;;;16.45;62.11;99353.56;2076779;28;19952;-74
2023/01/09 02:08:15;;;;;;;;;;;;;;;16.44;62.41;99352.81;2066506;28;19985;-74
2023/01/09 02:09:18;;;;;;;;;;;;;;;16.45;62.14;99350.84;2067715;28;19937;-75
2023/01/09 02:10:22;;;;;;;;;;;;;;;16.44;62.21;99347.34;2068962;28;20424;-75
2023/01/09 02:11:24;;;;;;;;;;;;;;;16.44;62.17;99355.53;2078760;28;20023;-74
2023/01/09 02:12:27;;;;;;;;;;;;;;;16.44;62.16;99355.53;2075231;28;19933;-75
2023/01/09 02:13:31;;;;;;;;;;;;;;;16.43;62.08;99356.69;2078474;28;19929;-75
2023/01/09 02:14:34;;;;;;;;;;;;;;;16.43;62.07;99348.50;2081598;28;19925;-75
2023/01/09 02:15:42;;;;;;;;;;;;;;;16.43;61.97;99353.97;2079184;28;19929;-74
2023/01/09 02:16:51;;;;;;;;;;;;;;;16.45;62.15;99356.31;2076281;28;19925;-74
2023/01/09 02:18:06;;;;;;;;;;;;;;;16.43;62.41;99356.69;2076466;28;19936;-74
2023/01/09 02:19:15;;;;;;;;;;;;;;;16.43;62.29;99359.41;2073761;28;19929;-74
2023/01/09 02:20:29;;;;;;;;;;;;;;;16.43;62.35;99362.13;2081064;28;19940;-75
2023/01/09 02:21:39;;;;;;;;;;;;;;;16.43;62.36;99364.88;2074831;28;19997;-75
2023/01/09 02:22:47;;;;;;;;;;;;;;;16.43;62.42;99367.59;2077852;28;20579;-74
2023/01/09 02:24:07;;;;;;;;;;;;;;;16.43;62.17;99370.31;2077532;28;20620;-74
2023/01/09 02:25:24;;;;;;;;;;;;;;;16.43;62.14;99370.31;2074353;28;19929;-74
2023/01/09 02:26:50;;;;;;;;;;;;;;;16.43;62.29;99364.88;2084864;28;19928;-74
2023/01/09 02:28:14;;;;;;;;;;;;;;;16.44;62.21;99363.69;2084188;28;19925;-74
2023/01/09 02:29:36;;;;;;;;;;;;;;;16.43;62.21;99364.09;2087599;28;19966;-74
2023/01/09 02:30:45;;;;;;;;;;;;;;;16.42;62.26;99368.78;2077850;28;19933;-74
2023/01/09 02:31:50;;;;;;;;;;;;;;;16.42;62.36;99363.34;2077956;28;19964;-74
2023/01/09 02:32:59;;;;;;;;;;;;;;;16.42;62.29;99368.78;2084889;28;19971;-74
2023/01/09 02:34:02;;;;;;;;;;;;;;;16.42;62.31;99368.78;2074414;28;19929;-74
2023/01/09 02:35:12;;;;;;;;;;;;;;;16.42;62.43;99363.34;2069944;28;20021;-74
2023/01/09 02:36:23;;;;;;;;;;;;;;;16.42;62.30;99368.78;2074246;28;19952;-74
2023/01/09 02:37:31;;;;;;;;;;;;;;;16.41;62.32;99372.66;2077678;28;19929;-74
2023/01/09 02:38:36;;;;;;;;;;;;;;;16.42;62.21;99373.44;2076749;28;19932;-74
2023/01/09 02:39:46;;;;;;;;;;;;;;;16.42;62.13;99366.06;2067222;28;19952;-73
2023/01/09 02:40:51;;;;;;;;;;;;;;;16.41;62.34;99367.22;2069904;28;19929;-74
2023/01/09 02:41:58;;;;;;;;;;;;;;;16.41;62.35;99366.47;2072073;28;19930;-74
2023/01/09 02:43:01;;;;;;;;;;;;;;;16.41;62.35;99364.50;2077691;28;20363;-74
2023/01/09 02:44:15;;;;;;;;;;;;;;;16.42;62.37;99363.34;2085758;28;19925;-74
2023/01/09 02:45:17;;;;;;;;;;;;;;;16.42;62.24;99365.28;2086281;28;20628;-73
2023/01/09 02:46:22;;;;;;;;;;;;;;;16.41;62.47;99364.50;2085523;28;20388;-73
2023/01/09 02:47:37;;;;;;;;;;;;;;;16.42;62.18;99363.34;2073411;28;20006;-73
2023/01/09 02:48:41;;;;;;;;;;;;;;;16.41;62.22;99363.75;2076606;28;19929;-74
2023/01/09 02:49:44;;;;;;;;;;;;;;;16.40;62.22;99365.69;2066441;28;19936;-74
2023/01/09 02:50:50;;;;;;;;;;;;;;;16.41;62.47;99366.47;2078685;28;19929;-73
2023/01/09 02:51:54;;;;;;;;;;;;;;;16.41;62.25;99363.75;2065917;28;19936;-74
2023/01/09 02:53:03;;;;;;;;;;;;;;;16.40;62.16;99365.69;2069507;28;19929;-74
2023/01/09 02:54:10;;;;;;;;;;;;;;;16.41;62.47;99372.66;2069894;28;19933;-74
2023/01/09 02:55:17;;;;;;;;;;;;;;;16.41;62.28;99369.19;2073164;28;20328;-74
2023/01/09 02:56:27;;;;;;;;;;;;;;;16.39;62.24;99369.59;2082433;28;19928;-75
2023/01/09 02:57:38;;;;;;;;;;;;;;;16.39;62.11;99366.84;2078014;28;19930;-74
2023/01/09 02:58:55;;;;;;;;;;;;;;;16.39;62.18;99372.31;2069025;28;19933;-74
2023/01/09 03:00:07;;;;;;;;;;;;;;;16.39;62.19;99369.59;2077909;28;19940;-74
2023/01/09 03:01:18;;;;;;;;;;;;;;;16.40;62.21;99371.16;2084349;28;20687;-74
2023/01/09 03:02:33;;;;;;;;;;;;;;;16.39;62.37;99375.03;2080062;28;19933;-74
2023/01/09 03:03:37;;;;;;;;;;;;;;;16.39;62.36;99375.03;2081420;28;19929;-74
2023/01/09 03:04:44;;;;;;;;;;;;;;;16.40;62.00;99373.09;2076455;28;19936;-73
2023/01/09 03:05:50;;;;;;;;;;;;;;;16.40;62.43;99375.81;2075757;28;19975;-74
2023/01/09 03:06:56;;;;;;;;;;;;;;;16.39;62.31;99375.03;2071568;28;19929;-73
2023/01/09 03:08:00;;;;;;;;;;;;;;;16.38;62.12;99373.50;2076241;28;19933;-73
2023/01/09 03:09:05;;;;;;;;;;;;;;;16.38;62.43;99376.22;2083367;28;20447;-74
2023/01/09 03:10:11;;;;;;;;;;;;;;;16.38;62.31;99376.22;2076233;28;19925;-74
2023/01/09 03:11:13;;;;;;;;;;;;;;;16.38;62.25;99378.94;2076002;28;20392;-73
2023/01/09 03:12:17;;;;;;;;;;;;;;;16.38;62.31;99381.69;2079337;28;19936;-73
2023/01/09 03:13:23;;;;;;;;;;;;;;;16.37;62.12;99377.41;2074060;28;19929;-73
2023/01/09 03:14:25;;;;;;;;;;;;;;;16.37;62.14;99377.41;2071057;28;20332;-74
2023/01/09 03:15:29;;;;;;;;;;;;;;;16.37;62.38;99379.38;2071210;28;19925;-73
2023/01/09 03:16:32;;;;;;;;;;;;;;;16.37;62.45;99379.38;2085282;28;20415;-73
2023/01/09 03:17:37;;;;;;;;;;;;;;;16.37;62.36;99382.88;2081541;28;19925;-74
2023/01/09 03:18:40;;;;;;;;;;;;;;;16.37;62.30;99377.41;2085008;28;19925;-73
2023/01/09 03:19:45;;;;;;;;;;;;;;;16.36;62.23;99375.88;2076174;28;19940;-74
2023/01/09 03:20:47;;;;;;;;;;;;;;;16.38;62.42;99378.16;2078325;28;19979;-74
2023/01/09 03:21:50;;;;;;;;;;;;;;;16.37;62.36;99377.41;2072573;28;19925;-74
2023/01/09 03:22:53;;;;;;;;;;;;;;;16.37;62.33;99371.19;2076424;28;19936;-73
2023/01/09 03:23:57;;;;;;;;;;;;;;;16.36;62.11;99364.97;2066728;28;20021;-75
2023/01/09 03:24:58;;;;;;;;;;;;;;;16.36;62.33;99372.38;2068313;28;20361;-74
2023/01/09 03:26:01;;;;;;;;;;;;;;;16.36;62.15;99373.13;2074579;28;20715;-74
2023/01/09 03:27:04;;;;;;;;;;;;;;;16.37;62.13;99377.41;2077443;28;20002;-74
2023/01/09 03:28:07;;;;;;;;;;;;;;;16.36;62.41;99375.88;2081446;28;19951;-74
2023/01/09 03:29:09;;;;;;;;;;;;;;;16.36;62.15;99375.13;2074967;28;20443;-73
2023/01/09 03:30:12;;;;;;;;;;;;;;;16.36;62.24;99373.13;2068013;28;19976;-74
2023/01/09 03:31:14;;;;;;;;;;;;;;;16.36;62.22;99372.38;2074029;28;19934;-74
2023/01/09 03:32:16;;;;;;;;;;;;;;;16.35;62.33;99368.88;2071907;28;20405;-78
2023/01/09 03:33:19;;;;;;;;;;;;;;;16.35;62.38;99368.88;2078842;28;19937;-77
2023/01/09 03:34:22;;;;;;;;;;;;;;;16.35;62.38;99374.34;2079587;28;20345;-79
2023/01/09 03:35:24;;;;;;;;;;;;;;;16.34;62.45;99382.91;2079064;28;19975;-77
2023/01/09 03:36:27;;;;;;;;;;;;;;;16.36;62.39;99377.84;2077938;28;19937;-76
2023/01/09 03:37:28;;;;;;;;;;;;;;;16.35;62.32;99374.34;2067343;28;20329;-76
2023/01/09 03:38:31;;;;;;;;;;;;;;;16.35;62.16;99370.81;2079018;28;19933;-76
2023/01/09 03:39:32;;;;;;;;;;;;;;;16.36;62.25;99380.56;2082735;28;19987;-77
2023/01/09 03:40:35;;;;;;;;;;;;;;;16.34;62.39;99383.69;2074664;28;19926;-78
2023/01/09 03:41:37;;;;;;;;;;;;;;;16.34;62.28;99377.47;2069649;28;19945;-76
2023/01/09 03:42:39;;;;;;;;;;;;;;;16.34;62.37;99378.25;2069989;28;20332;-77
2023/01/09 03:43:41;;;;;;;;;;;;;;;16.34;62.21;99382.91;2077278;28;19929;-75
2023/01/09 03:44:43;;;;;;;;;;;;;;;16.34;62.51;99382.91;2067000;28;19929;-77
2023/01/09 03:45:45;;;;;;;;;;;;;;;16.33;62.36;99387.59;2069802;28;19929;-77
2023/01/09 03:46:49;;;;;;;;;;;;;;;16.34;62.41;99383.69;2075357;28;19972;-77
2023/01/09 03:47:50;;;;;;;;;;;;;;;16.34;62.36;99378.25;2073233;28;20408;-77
2023/01/09 03:48:55;;;;;;;;;;;;;;;16.33;62.38;99382.13;2074442;28;19928;-77
2023/01/09 03:49:57;;;;;;;;;;;;;;;16.34;62.12;99383.69;2069638;28;20310;-77
2023/01/09 03:51:00;;;;;;;;;;;;;;;16.33;62.38;99382.13;2075617;28;19936;-77
2023/01/09 03:52:01;;;;;;;;;;;;;;;16.33;62.48;99379.41;2079837;28;20361;-77
2023/01/09 03:53:04;;;;;;;;;;;;;;;16.33;62.46;99382.13;2062211;28;19929;-77
2023/01/09 03:54:05;;;;;;;;;;;;;;;16.33;62.47;99382.13;2071153;28;19929;-77
2023/01/09 03:55:08;;;;;;;;;;;;;;;16.33;62.39;99384.88;2077145;28;19933;-79
2023/01/09 03:56:10;;;;;;;;;;;;;;;16.32;62.22;99383.34;2076172;28;20416;-77
2023/01/09 03:57:12;;;;;;;;;;;;;;;16.33;62.23;99384.88;2068158;28;20494;-77
2023/01/09 03:58:14;;;;;;;;;;;;;;;16.32;62.20;99385.28;2076161;28;20478;-77
2023/01/09 03:59:17;;;;;;;;;;;;;;;16.33;62.45;99379.41;2076586;28;19936;-78
2023/01/09 04:00:19;;;;;;;;;;;;;;;16.33;62.21;99384.88;2077035;28;20380;-76
2023/01/09 04:01:22;;;;;;;;;;;;;;;16.33;62.29;99382.13;2075997;28;19929;-77
2023/01/09 04:02:24;;;;;;;;;;;;;;;16.32;62.15;99375.16;2078966;28;20028;-76
2023/01/09 04:03:26;;;;;;;;;;;;;;;16.33;62.30;99389.56;2080210;28;19929;-75
2023/01/09 04:04:30;;;;;;;;;;;;;;;16.33;62.36;99381.38;2083713;28;19937;-75
2023/01/09 04:05:32;;;;;;;;;;;;;;;16.31;62.46;99389.97;2078629;28;19929;-75
2023/01/09 04:06:34;;;;;;;;;;;;;;;16.32;62.43;99388.00;2079072;28;19929;-75
2023/01/09 04:07:37;;;;;;;;;;;;;;;16.32;62.46;99394.22;2067021;28;19933;-76
2023/01/09 04:08:38;;;;;;;;;;;;;;;16.32;62.20;99386.06;2066365;28;19929;-76
2023/01/09 04:09:41;;;;;;;;;;;;;;;16.31;62.21;99395.44;2074086;28;19933;-76
2023/01/09 04:10:43;;;;;;;;;;;;;;;16.31;62.31;99389.19;2070728;28;19925;-77
2023/01/09 04:11:45;;;;;;;;;;;;;;;16.32;62.21;99398.91;2060127;28;19930;-77
2023/01/09 04:12:47;;;;;;;;;;;;;;;16.31;62.30;99389.19;2060289;28;19925;-76
2023/01/09 04:13:50;;;;;;;;;;;;;;;16.30;62.31;99393.88;2061843;28;20417;-76
2023/01/09 04:14:51;;;;;;;;;;;;;;;16.31;62.24;99397.38;2061927;28;19930;-76
2023/01/09 04:15:54;;;;;;;;;;;;;;;16.30;62.29;99402.03;2071415;28;20421;-76
2023/01/09 04:16:56;;;;;;;;;;;;;;;16.31;62.37;99397.38;2077516;28;19937;-76
2023/01/09 04:17:58;;;;;;;;;;;;;;;16.30;62.25;99399.31;2068930;28;19933;-76
2023/01/09 04:19:01;;;;;;;;;;;;;;;16.30;62.46;99403.97;2067464;28;19941;-77
2023/01/09 04:20:04;;;;;;;;;;;;;;;16.30;62.15;99404.75;2076445;28;20479;-75
2023/01/09 04:21:07;;;;;;;;;;;;;;;16.30;62.15;99404.75;2087587;28;20396;-76
2023/01/09 04:22:09;;;;;;;;;;;;;;;16.30;62.25;99398.53;2078842;28;19929;-76
2023/01/09 04:23:11;;;;;;;;;;;;;;;16.30;62.31;99395.81;2069302;28;20732;-76
2023/01/09 04:24:13;;;;;;;;;;;;;;;16.29;62.47;99397.78;2070133;28;19936;-76
2023/01/09 04:25:15;;;;;;;;;;;;;;;16.29;62.59;99391.56;2075852;28;20032;-76
2023/01/09 04:26:17;;;;;;;;;;;;;;;16.29;62.25;99397.00;2070895;28;19979;-75
2023/01/09 04:27:20;;;;;;;;;;;;;;;16.30;62.23;99399.31;2064210;28;19933;-76
2023/01/09 04:28:22;;;;;;;;;;;;;;;16.29;62.44;99403.22;2078991;28;20403;-75
2023/01/09 04:29:25;;;;;;;;;;;;;;;16.30;62.50;99403.97;2071031;28;19938;-76
2023/01/09 04:30:26;;;;;;;;;;;;;;;16.29;62.46;99405.97;2068055;28;19956;-76
2023/01/09 04:31:29;;;;;;;;;;;;;;;16.30;62.12;99403.97;2078273;28;19933;-76
2023/01/09 04:32:31;;;;;;;;;;;;;;;16.29;62.25;99408.69;2076670;28;20024;-76
2023/01/09 04:33:33;;;;;;;;;;;;;;;16.29;62.24;99411.41;2078206;28;19937;-75
2023/01/09 04:34:35;;;;;;;;;;;;;;;16.29;62.43;99408.69;2078147;28;19929;-76
2023/01/09 04:35:39;;;;;;;;;;;;;;;16.28;62.22;99407.13;2078489;28;19963;-76
2023/01/09 04:36:41;;;;;;;;;;;;;;;16.29;62.41;99407.91;2076226;28;19933;-76
2023/01/09 04:37:43;;;;;;;;;;;;;;;16.25;62.17;99405.22;2063789;28;19930;-76
2023/01/09 04:38:46;;;;;;;;;;;;;;;16.28;62.29;99409.84;2059432;28;19981;-75
2023/01/09 04:39:48;;;;;;;;;;;;;;;16.28;62.48;99418.00;2070699;28;19929;-76
2023/01/09 04:40:50;;;;;;;;;;;;;;;16.28;62.31;99412.56;2080697;28;19982;-76
2023/01/09 04:41:52;;;;;;;;;;;;;;;16.29;62.34;99416.06;2079000;28;19929;-75
2023/01/09 04:42:55;;;;;;;;;;;;;;;16.29;62.32;99414.13;2078583;28;19929;-76
2023/01/09 04:43:56;;;;;;;;;;;;;;;16.28;62.26;99418.00;2076472;28;19992;-76
2023/01/09 04:45:01;;;;;;;;;;;;;;;16.28;62.50;99411.81;2067179;28;20393;-75
2023/01/09 04:46:03;;;;;;;;;;;;;;;16.27;62.46;99416.47;2078315;28;19936;-76
2023/01/09 04:47:05;;;;;;;;;;;;;;;16.28;62.43;99423.47;2078009;28;19936;-76
2023/01/09 04:48:07;;;;;;;;;;;;;;;16.28;62.46;99418.00;2084714;28;19992;-75
2023/01/09 04:49:09;;;;;;;;;;;;;;;16.27;62.18;99415.72;2083425;28;19935;-75
2023/01/09 04:50:13;;;;;;;;;;;;;;;16.27;62.37;99416.47;2081336;28;19929;-75
2023/01/09 04:51:16;;;;;;;;;;;;;;;16.27;62.24;99416.47;2079188;28;20485;-77
2023/01/09 04:52:18;;;;;;;;;;;;;;;16.27;62.29;99419.22;2079545;28;21241;-75
2023/01/09 04:53:20;;;;;;;;;;;;;;;16.27;62.18;99415.72;2077292;28;19951;-79
2023/01/09 04:54:23;;;;;;;;;;;;;;;16.27;62.44;99419.22;2088660;28;19929;-75
2023/01/09 04:55:24;;;;;;;;;;;;;;;16.26;62.42;99414.97;2075863;28;20004;-77
2023/01/09 04:56:27;;;;;;;;;;;;;;;16.27;62.21;99418.44;2076751;28;19933;-79
2023/01/09 04:57:28;;;;;;;;;;;;;;;16.26;62.39;99420.41;2075093;28;19930;-76
2023/01/09 04:58:31;;;;;;;;;;;;;;;16.26;62.37;99420.41;2080269;28;19929;-78
2023/01/09 04:59:33;;;;;;;;;;;;;;;16.27;62.24;99426.59;2087553;28;19952;-75
2023/01/09 05:00:35;;;;;;;;;;;;;;;16.27;61.93;99426.59;2085029;28;19933;-77
2023/01/09 05:01:37;;;;;;;;;;;;;;;16.26;62.17;99425.84;2077214;28;19933;-80
2023/01/09 05:02:40;;;;;;;;;;;;;;;16.26;62.52;99425.06;2080146;28;20385;-80
2023/01/09 05:03:42;;;;;;;;;;;;;;;16.27;62.19;99429.31;2079258;28;19934;-77
2023/01/09 05:04:44;;;;;;;;;;;;;;;16.27;62.24;99426.59;2079065;28;19967;-82
2023/01/09 05:05:46;;;;;;;;;;;;;;;16.26;62.46;99427.78;2085992;28;19929;-80
2023/01/09 05:06:50;;;;;;;;;;;;;;;16.26;62.51;99420.41;2081434;28;19933;-78
2023/01/09 05:07:53;;;;;;;;;;;;;;;16.26;62.53;99425.06;2082010;28;19972;-84
2023/01/09 05:08:55;;;;;;;;;;;;;;;16.25;62.18;99424.28;2080198;28;19925;-81
2023/01/09 05:09:58;;;;;;;;;;;;;;;16.25;62.24;99424.28;2081398;28;19936;-82
2023/01/09 05:10:59;;;;;;;;;;;;;;;16.25;62.16;99435.19;2073413;28;19929;-80
2023/01/09 05:12:02;;;;;;;;;;;;;;;16.25;62.14;99424.28;2065053;28;20006;-81
2023/01/09 05:13:03;;;;;;;;;;;;;;;16.25;62.40;99424.28;2081547;28;20043;-83
2023/01/09 05:14:06;;;;;;;;;;;;;;;16.25;62.13;99429.72;2080837;28;19932;-83
2023/01/09 05:15:09;;;;;;;;;;;;;;;16.25;62.24;99427.00;2071323;28;19929;-80
2023/01/09 05:16:10;;;;;;;;;;;;;;;16.24;62.26;99436.38;2072851;28;19930;-79
2023/01/09 05:17:13;;;;;;;;;;;;;;;16.25;62.35;99428.97;2080562;28;19929;-82
2023/01/09 05:18:15;;;;;;;;;;;;;;;16.25;62.08;99435.19;2087806;28;19928;-81
2023/01/09 05:19:17;;;;;;;;;;;;;;;16.24;62.29;99441.81;2081097;28;20388;-80
2023/01/09 05:20:19;;;;;;;;;;;;;;;16.25;62.14;99435.19;2076221;28;20373;-79
2023/01/09 05:21:22;;;;;;;;;;;;;;;16.24;62.22;99439.09;2089390;28;19936;-79
2023/01/09 05:22:25;;;;;;;;;;;;;;;16.24;62.33;99441.03;2081436;28;19926;-76
2023/01/09 05:23:27;;;;;;;;;;;;;;;16.24;62.29;99439.09;2081063;28;19925;-81
2023/01/09 05:24:29;;;;;;;;;;;;;;;16.24;62.12;99439.09;2081436;28;19933;-79
2023/01/09 05:25:32;;;;;;;;;;;;;;;16.24;62.18;99450.00;2081618;28;19940;-79
2023/01/09 05:26:33;;;;;;;;;;;;;;;16.24;62.07;99450.00;2076903;28;19929;-81
2023/01/09 05:27:36;;;;;;;;;;;;;;;16.23;62.37;99448.47;2073308;28;19932;-82
2023/01/09 05:28:38;;;;;;;;;;;;;;;16.24;62.15;99452.72;2073953;28;19929;-82
2023/01/09 05:29:40;;;;;;;;;;;;;;;16.23;62.32;99453.91;2075841;28;19975;-81
2023/01/09 05:30:42;;;;;;;;;;;;;;;16.23;62.27;99453.91;2065033;28;20096;-80
2023/01/09 05:31:44;;;;;;;;;;;;;;;16.23;62.14;99451.19;2074855;28;19930;-83
2023/01/09 05:32:46;;;;;;;;;;;;;;;16.23;62.17;99453.91;2081139;28;20428;-81
2023/01/09 05:33:49;;;;;;;;;;;;;;;16.22;62.30;99455.06;2080684;28;19925;-80
2023/01/09 05:34:50;;;;;;;;;;;;;;;16.23;62.23;99459.34;2081477;28;19935;-81
2023/01/09 05:35:53;;;;;;;;;;;;;;;16.23;62.12;99464.81;2081239;28;19937;-81